Decoded Metar for SBFL (FLORIANOPOLIS in BRAZIL) (IATA:FLN) | Meteo·Mobile Aviation Weather
aviador You're here:

SBFL Decoded Metar

FLORIANOPOLIS in BRAZIL
Report Time2019-04-21 00:00:00
UTC Time2019-04-21 00:11:03
Flight Rules vfr VFR
Wind160° at 05 kt
W.Decomp.*RWY 21: 4.3 kt HW 2.6 kt LCW
RWY 14: 3.9 kt HW 3.1 kt RCW
Visibility9999 m
Phenomena:N/A
Clouds:N/A
Expected CloudBase > 4,000 ft AGL from Temp-Dew spread
CeilingNone
Temp25°C (ISA +10)
Dew Point15°C (54% RH)
AAT24.8°C
QNH1011 hPa
Density Alt1,473 ft
Elevation16 ft
Report Wrong Elevation
Raw Report
METAR SBFL 210000Z 16005KT CAVOK 25/15 Q1011=

Extra information for SBFL:More info

Metar Taf Metar & Taf Last 4 Metars F.Rules Stats Wind Profile Meteogram Temp Stats Airport Information Weather charts Add Link Nearby VenuesMetar ALERT Operation Metar Decoded Social comments